sensor_id;sensor_type;location;lat;lon;timestamp;P1;durP1;ratioP1;P2;durP2;ratioP2
18899;SDS011;9582;52.018;6.306;2023-08-31T00:00:55;3.73;;;2.87;;
18899;SDS011;9582;52.018;6.306;2023-08-31T00:03:28;4.30;;;2.67;;
18899;SDS011;9582;52.018;6.306;2023-08-31T00:05:55;4.73;;;2.83;;
18899;SDS011;9582;52.018;6.306;2023-08-31T00:08:22;6.43;;;2.90;;
18899;SDS011;9582;52.018;6.306;2023-08-31T00:10:55;4.90;;;2.90;;
18899;SDS011;9582;52.018;6.306;2023-08-31T00:13:23;3.88;;;2.80;;
18899;SDS011;9582;52.018;6.306;2023-08-31T00:15:49;4.33;;;3.33;;
18899;SDS011;9582;52.018;6.306;2023-08-31T00:18:16;5.90;;;3.73;;
18899;SDS011;9582;52.018;6.306;2023-08-31T00:20:43;8.37;;;4.03;;
18899;SDS011;9582;52.018;6.306;2023-08-31T00:23:09;6.13;;;3.83;;
18899;SDS011;9582;52.018;6.306;2023-08-31T00:25:36;5.23;;;4.40;;
18899;SDS011;9582;52.018;6.306;2023-08-31T00:28:04;6.03;;;4.47;;
18899;SDS011;9582;52.018;6.306;2023-08-31T00:30:30;7.37;;;4.80;;
18899;SDS011;9582;52.018;6.306;2023-08-31T00:32:57;5.27;;;4.77;;
18899;SDS011;9582;52.018;6.306;2023-08-31T00:35:26;7.87;;;5.20;;
18899;SDS011;9582;52.018;6.306;2023-08-31T00:37:53;6.93;;;5.15;;
18899;SDS011;9582;52.018;6.306;2023-08-31T00:40:22;6.53;;;4.70;;
18899;SDS011;9582;52.018;6.306;2023-08-31T00:42:48;7.05;;;4.68;;
18899;SDS011;9582;52.018;6.306;2023-08-31T00:45:16;6.17;;;4.83;;
18899;SDS011;9582;52.018;6.306;2023-08-31T00:47:44;6.60;;;4.57;;
18899;SDS011;9582;52.018;6.306;2023-08-31T00:50:12;7.40;;;5.63;;
18899;SDS011;9582;52.018;6.306;2023-08-31T00:52:39;5.30;;;4.77;;
18899;SDS011;9582;52.018;6.306;2023-08-31T00:55:08;9.00;;;4.90;;
18899;SDS011;9582;52.018;6.306;2023-08-31T00:57:35;5.90;;;4.33;;
18899;SDS011;9582;52.018;6.306;2023-08-31T01:00:02;5.87;;;4.87;;
18899;SDS011;9582;52.018;6.306;2023-08-31T01:02:34;6.63;;;4.67;;
18899;SDS011;9582;52.018;6.306;2023-08-31T01:05:08;5.00;;;4.40;;
18899;SDS011;9582;52.018;6.306;2023-08-31T01:07:41;6.63;;;4.50;;
18899;SDS011;9582;52.018;6.306;2023-08-31T01:10:18;7.23;;;4.90;;
18899;SDS011;9582;52.018;6.306;2023-08-31T01:12:52;6.03;;;4.77;;
18899;SDS011;9582;52.018;6.306;2023-08-31T01:15:21;7.17;;;4.70;;
18899;SDS011;9582;52.018;6.306;2023-08-31T01:17:49;6.47;;;5.07;;
18899;SDS011;9582;52.018;6.306;2023-08-31T01:20:19;7.63;;;5.67;;
18899;SDS011;9582;52.018;6.306;2023-08-31T01:22:55;6.20;;;5.63;;
18899;SDS011;9582;52.018;6.306;2023-08-31T01:25:27;7.40;;;6.10;;
18899;SDS011;9582;52.018;6.306;2023-08-31T01:27:56;10.70;;;6.23;;
18899;SDS011;9582;52.018;6.306;2023-08-31T01:30:22;7.47;;;6.03;;
18899;SDS011;9582;52.018;6.306;2023-08-31T01:32:50;8.93;;;7.07;;
18899;SDS011;9582;52.018;6.306;2023-08-31T01:35:17;7.23;;;6.53;;
18899;SDS011;9582;52.018;6.306;2023-08-31T01:37:48;8.63;;;6.20;;
18899;SDS011;9582;52.018;6.306;2023-08-31T01:40:18;8.47;;;6.63;;
18899;SDS011;9582;52.018;6.306;2023-08-31T01:42:50;8.17;;;6.50;;
18899;SDS011;9582;52.018;6.306;2023-08-31T01:45:18;9.47;;;7.00;;
18899;SDS011;9582;52.018;6.306;2023-08-31T01:47:46;8.73;;;7.80;;
18899;SDS011;9582;52.018;6.306;2023-08-31T01:50:13;11.60;;;7.93;;
18899;SDS011;9582;52.018;6.306;2023-08-31T01:52:39;10.63;;;8.77;;
18899;SDS011;9582;52.018;6.306;2023-08-31T01:55:06;10.30;;;8.60;;
18899;SDS011;9582;52.018;6.306;2023-08-31T01:57:33;10.13;;;9.10;;
18899;SDS011;9582;52.018;6.306;2023-08-31T02:00:27;12.10;;;9.07;;
18899;SDS011;9582;52.018;6.306;2023-08-31T02:02:55;12.37;;;9.63;;
18899;SDS011;9582;52.018;6.306;2023-08-31T02:05:21;14.07;;;11.17;;
18899;SDS011;9582;52.018;6.306;2023-08-31T02:07:48;12.87;;;11.17;;
18899;SDS011;9582;52.018;6.306;2023-08-31T02:10:15;13.57;;;10.87;;
18899;SDS011;9582;52.018;6.306;2023-08-31T02:12:42;13.80;;;12.27;;
18899;SDS011;9582;52.018;6.306;2023-08-31T02:15:09;15.57;;;11.67;;
18899;SDS011;9582;52.018;6.306;2023-08-31T02:17:37;14.57;;;12.57;;
18899;SDS011;9582;52.018;6.306;2023-08-31T02:20:04;16.47;;;12.10;;
18899;SDS011;9582;52.018;6.306;2023-08-31T02:22:34;14.57;;;12.37;;
18899;SDS011;9582;52.018;6.306;2023-08-31T02:25:01;17.77;;;12.77;;
18899;SDS011;9582;52.018;6.306;2023-08-31T02:27:28;14.60;;;11.70;;
18899;SDS011;9582;52.018;6.306;2023-08-31T02:29:54;15.10;;;12.30;;
18899;SDS011;9582;52.018;6.306;2023-08-31T02:32:21;14.77;;;12.40;;
18899;SDS011;9582;52.018;6.306;2023-08-31T02:34:49;15.47;;;11.63;;
18899;SDS011;9582;52.018;6.306;2023-08-31T02:37:15;15.47;;;11.93;;
18899;SDS011;9582;52.018;6.306;2023-08-31T02:39:43;14.03;;;12.03;;
18899;SDS011;9582;52.018;6.306;2023-08-31T02:42:09;16.13;;;12.93;;
18899;SDS011;9582;52.018;6.306;2023-08-31T02:44:36;17.60;;;13.73;;
18899;SDS011;9582;52.018;6.306;2023-08-31T02:47:03;19.40;;;14.13;;
18899;SDS011;9582;52.018;6.306;2023-08-31T02:49:29;16.57;;;12.93;;
18899;SDS011;9582;52.018;6.306;2023-08-31T02:51:57;18.17;;;13.50;;
18899;SDS011;9582;52.018;6.306;2023-08-31T02:54:24;17.87;;;13.90;;
18899;SDS011;9582;52.018;6.306;2023-08-31T02:56:50;18.80;;;14.03;;
18899;SDS011;9582;52.018;6.306;2023-08-31T02:59:17;16.17;;;13.73;;
18899;SDS011;9582;52.018;6.306;2023-08-31T03:01:44;17.07;;;14.00;;
18899;SDS011;9582;52.018;6.306;2023-08-31T03:04:12;16.77;;;14.30;;
18899;SDS011;9582;52.018;6.306;2023-08-31T03:06:39;19.17;;;14.40;;
18899;SDS011;9582;52.018;6.306;2023-08-31T03:09:07;19.63;;;15.03;;
18899;SDS011;9582;52.018;6.306;2023-08-31T03:11:34;19.80;;;15.33;;
18899;SDS011;9582;52.018;6.306;2023-08-31T03:14:01;19.60;;;16.17;;
18899;SDS011;9582;52.018;6.306;2023-08-31T03:16:27;19.43;;;15.17;;
18899;SDS011;9582;52.018;6.306;2023-08-31T03:18:54;22.92;;;16.23;;
18899;SDS011;9582;52.018;6.306;2023-08-31T03:21:20;19.53;;;16.60;;
18899;SDS011;9582;52.018;6.306;2023-08-31T03:23:47;20.93;;;16.37;;
18899;SDS011;9582;52.018;6.306;2023-08-31T03:26:15;25.77;;;17.63;;
18899;SDS011;9582;52.018;6.306;2023-08-31T03:28:41;20.03;;;17.37;;
18899;SDS011;9582;52.018;6.306;2023-08-31T03:31:08;22.97;;;17.87;;
18899;SDS011;9582;52.018;6.306;2023-08-31T03:33:34;24.60;;;18.57;;
18899;SDS011;9582;52.018;6.306;2023-08-31T03:36:01;25.80;;;17.97;;
18899;SDS011;9582;52.018;6.306;2023-08-31T03:38:29;20.63;;;15.87;;
18899;SDS011;9582;52.018;6.306;2023-08-31T03:40:58;21.35;;;16.55;;
18899;SDS011;9582;52.018;6.306;2023-08-31T03:43:26;23.60;;;16.23;;
18899;SDS011;9582;52.018;6.306;2023-08-31T03:45:55;20.50;;;16.17;;
18899;SDS011;9582;52.018;6.306;2023-08-31T03:48:22;22.53;;;17.93;;
18899;SDS011;9582;52.018;6.306;2023-08-31T03:50:49;24.53;;;19.07;;
18899;SDS011;9582;52.018;6.306;2023-08-31T03:53:16;30.50;;;20.53;;
18899;SDS011;9582;52.018;6.306;2023-08-31T03:55:43;27.07;;;20.63;;
18899;SDS011;9582;52.018;6.306;2023-08-31T03:58:09;27.60;;;20.93;;
18899;SDS011;9582;52.018;6.306;2023-08-31T04:00:38;30.17;;;22.02;;
18899;SDS011;9582;52.018;6.306;2023-08-31T04:03:05;27.27;;;22.13;;
18899;SDS011;9582;52.018;6.306;2023-08-31T04:05:32;30.25;;;21.17;;
18899;SDS011;9582;52.018;6.306;2023-08-31T04:07:59;28.77;;;23.52;;
18899;SDS011;9582;52.018;6.306;2023-08-31T04:10:25;30.73;;;24.37;;
18899;SDS011;9582;52.018;6.306;2023-08-31T04:12:52;34.83;;;24.23;;
18899;SDS011;9582;52.018;6.306;2023-08-31T04:15:19;32.88;;;24.48;;
18899;SDS011;9582;52.018;6.306;2023-08-31T04:17:47;35.35;;;24.65;;
18899;SDS011;9582;52.018;6.306;2023-08-31T04:20:14;35.53;;;25.90;;
18899;SDS011;9582;52.018;6.306;2023-08-31T04:22:41;32.50;;;25.33;;
18899;SDS011;9582;52.018;6.306;2023-08-31T04:25:08;35.03;;;25.90;;
18899;SDS011;9582;52.018;6.306;2023-08-31T04:27:34;33.07;;;24.40;;
18899;SDS011;9582;52.018;6.306;2023-08-31T04:30:04;36.97;;;26.02;;
18899;SDS011;9582;52.018;6.306;2023-08-31T04:32:32;37.10;;;26.02;;
18899;SDS011;9582;52.018;6.306;2023-08-31T04:34:59;37.90;;;25.77;;
18899;SDS011;9582;52.018;6.306;2023-08-31T04:37:26;32.50;;;23.27;;
18899;SDS011;9582;52.018;6.306;2023-08-31T04:39:52;33.92;;;24.88;;
18899;SDS011;9582;52.018;6.306;2023-08-31T04:42:19;31.98;;;23.42;;
18899;SDS011;9582;52.018;6.306;2023-08-31T04:44:45;37.55;;;24.35;;
18899;SDS011;9582;52.018;6.306;2023-08-31T04:47:12;30.52;;;23.80;;
18899;SDS011;9582;52.018;6.306;2023-08-31T04:49:38;33.35;;;23.35;;
18899;SDS011;9582;52.018;6.306;2023-08-31T04:52:06;30.25;;;22.23;;
18899;SDS011;9582;52.018;6.306;2023-08-31T04:54:33;32.03;;;22.45;;
18899;SDS011;9582;52.018;6.306;2023-08-31T04:56:59;34.50;;;22.95;;
18899;SDS011;9582;52.018;6.306;2023-08-31T04:59:26;36.25;;;23.77;;
18899;SDS011;9582;52.018;6.306;2023-08-31T05:01:52;42.33;;;25.13;;
18899;SDS011;9582;52.018;6.306;2023-08-31T05:04:19;32.65;;;23.80;;
18899;SDS011;9582;52.018;6.306;2023-08-31T05:06:45;30.42;;;22.73;;
18899;SDS011;9582;52.018;6.306;2023-08-31T05:09:13;31.20;;;22.23;;
18899;SDS011;9582;52.018;6.306;2023-08-31T05:11:39;30.50;;;22.35;;
18899;SDS011;9582;52.018;6.306;2023-08-31T05:14:06;33.50;;;22.88;;
18899;SDS011;9582;52.018;6.306;2023-08-31T05:16:32;31.02;;;21.33;;
18899;SDS011;9582;52.018;6.306;2023-08-31T05:18:59;33.83;;;22.50;;
18899;SDS011;9582;52.018;6.306;2023-08-31T05:21:26;34.13;;;23.45;;
18899;SDS011;9582;52.018;6.306;2023-08-31T05:23:52;37.60;;;23.50;;
18899;SDS011;9582;52.018;6.306;2023-08-31T05:26:20;36.22;;;23.02;;
18899;SDS011;9582;52.018;6.306;2023-08-31T05:28:46;33.50;;;23.70;;
18899;SDS011;9582;52.018;6.306;2023-08-31T05:31:13;37.43;;;23.23;;
18899;SDS011;9582;52.018;6.306;2023-08-31T05:33:39;33.17;;;21.95;;
18899;SDS011;9582;52.018;6.306;2023-08-31T05:36:06;27.02;;;20.80;;
18899;SDS011;9582;52.018;6.306;2023-08-31T05:38:32;31.45;;;22.35;;
18899;SDS011;9582;52.018;6.306;2023-08-31T05:41:05;28.48;;;21.63;;
18899;SDS011;9582;52.018;6.306;2023-08-31T05:43:35;29.20;;;20.45;;
18899;SDS011;9582;52.018;6.306;2023-08-31T05:46:05;28.33;;;20.57;;
18899;SDS011;9582;52.018;6.306;2023-08-31T05:48:31;29.52;;;21.30;;
18899;SDS011;9582;52.018;6.306;2023-08-31T05:50:58;28.40;;;20.83;;
18899;SDS011;9582;52.018;6.306;2023-08-31T05:53:24;25.70;;;20.02;;
18899;SDS011;9582;52.018;6.306;2023-08-31T05:55:50;28.08;;;19.58;;
18899;SDS011;9582;52.018;6.306;2023-08-31T05:58:17;25.33;;;18.67;;
18899;SDS011;9582;52.018;6.306;2023-08-31T06:00:45;27.77;;;19.33;;
18899;SDS011;9582;52.018;6.306;2023-08-31T06:03:11;22.40;;;17.17;;
18899;SDS011;9582;52.018;6.306;2023-08-31T06:05:38;25.83;;;18.88;;
18899;SDS011;9582;52.018;6.306;2023-08-31T06:08:04;24.00;;;19.13;;
18899;SDS011;9582;52.018;6.306;2023-08-31T06:10:31;25.83;;;18.45;;
18899;SDS011;9582;52.018;6.306;2023-08-31T06:12:58;23.65;;;18.38;;
18899;SDS011;9582;52.018;6.306;2023-08-31T06:15:24;24.20;;;17.88;;
18899;SDS011;9582;52.018;6.306;2023-08-31T06:17:52;21.95;;;17.35;;
18899;SDS011;9582;52.018;6.306;2023-08-31T06:20:18;24.83;;;19.15;;
18899;SDS011;9582;52.018;6.306;2023-08-31T06:22:45;20.90;;;17.33;;
18899;SDS011;9582;52.018;6.306;2023-08-31T06:25:11;22.48;;;19.17;;
18899;SDS011;9582;52.018;6.306;2023-08-31T06:27:41;20.88;;;17.55;;
18899;SDS011;9582;52.018;6.306;2023-08-31T06:30:08;19.42;;;17.27;;
18899;SDS011;9582;52.018;6.306;2023-08-31T06:32:37;19.25;;;16.60;;
18899;SDS011;9582;52.018;6.306;2023-08-31T06:35:05;17.95;;;14.82;;
18899;SDS011;9582;52.018;6.306;2023-08-31T06:37:32;22.00;;;17.73;;
18899;SDS011;9582;52.018;6.306;2023-08-31T06:39:58;23.73;;;18.63;;
18899;SDS011;9582;52.018;6.306;2023-08-31T06:42:25;21.73;;;16.42;;
18899;SDS011;9582;52.018;6.306;2023-08-31T06:44:51;21.77;;;17.10;;
18899;SDS011;9582;52.018;6.306;2023-08-31T06:47:18;18.60;;;15.27;;
18899;SDS011;9582;52.018;6.306;2023-08-31T06:49:45;19.52;;;15.45;;
18899;SDS011;9582;52.018;6.306;2023-08-31T06:52:13;18.73;;;16.60;;
18899;SDS011;9582;52.018;6.306;2023-08-31T06:54:41;17.45;;;15.45;;
18899;SDS011;9582;52.018;6.306;2023-08-31T06:57:07;17.65;;;15.57;;
18899;SDS011;9582;52.018;6.306;2023-08-31T06:59:34;17.67;;;15.80;;
18899;SDS011;9582;52.018;6.306;2023-08-31T07:02:00;16.83;;;14.18;;
18899;SDS011;9582;52.018;6.306;2023-08-31T07:04:26;15.43;;;13.80;;
18899;SDS011;9582;52.018;6.306;2023-08-31T07:06:53;16.20;;;14.15;;
18899;SDS011;9582;52.018;6.306;2023-08-31T07:09:21;18.23;;;14.85;;
18899;SDS011;9582;52.018;6.306;2023-08-31T07:11:47;16.50;;;13.27;;
18899;SDS011;9582;52.018;6.306;2023-08-31T07:14:13;15.68;;;14.10;;
18899;SDS011;9582;52.018;6.306;2023-08-31T07:16:40;14.07;;;12.70;;
18899;SDS011;9582;52.018;6.306;2023-08-31T07:19:06;14.32;;;12.82;;
18899;SDS011;9582;52.018;6.306;2023-08-31T07:21:33;13.57;;;11.73;;
18899;SDS011;9582;52.018;6.306;2023-08-31T07:23:59;14.38;;;12.85;;
18899;SDS011;9582;52.018;6.306;2023-08-31T07:26:27;13.63;;;12.23;;
18899;SDS011;9582;52.018;6.306;2023-08-31T07:28:54;16.42;;;13.25;;
18899;SDS011;9582;52.018;6.306;2023-08-31T07:31:20;15.80;;;14.05;;
18899;SDS011;9582;52.018;6.306;2023-08-31T07:33:46;15.70;;;14.10;;
18899;SDS011;9582;52.018;6.306;2023-08-31T07:36:13;15.48;;;13.82;;
18899;SDS011;9582;52.018;6.306;2023-08-31T07:38:40;16.17;;;13.30;;
18899;SDS011;9582;52.018;6.306;2023-08-31T07:41:07;19.60;;;14.43;;
18899;SDS011;9582;52.018;6.306;2023-08-31T07:43:34;14.85;;;13.30;;
18899;SDS011;9582;52.018;6.306;2023-08-31T07:46:01;11.88;;;10.70;;
18899;SDS011;9582;52.018;6.306;2023-08-31T07:48:28;14.65;;;13.15;;
18899;SDS011;9582;52.018;6.306;2023-08-31T07:50:55;14.32;;;12.82;;
18899;SDS011;9582;52.018;6.306;2023-08-31T07:53:21;13.95;;;12.55;;
18899;SDS011;9582;52.018;6.306;2023-08-31T07:55:52;15.82;;;12.70;;
18899;SDS011;9582;52.018;6.306;2023-08-31T07:58:20;14.15;;;12.70;;
18899;SDS011;9582;52.018;6.306;2023-08-31T08:00:48;13.18;;;11.73;;
18899;SDS011;9582;52.018;6.306;2023-08-31T08:03:15;13.05;;;11.75;;
18899;SDS011;9582;52.018;6.306;2023-08-31T08:05:41;10.88;;;9.70;;
18899;SDS011;9582;52.018;6.306;2023-08-31T08:08:08;11.38;;;9.90;;
18899;SDS011;9582;52.018;6.306;2023-08-31T08:10:34;13.38;;;10.32;;
18899;SDS011;9582;52.018;6.306;2023-08-31T08:13:01;13.32;;;10.60;;
18899;SDS011;9582;52.018;6.306;2023-08-31T08:15:28;9.88;;;8.80;;
18899;SDS011;9582;52.018;6.306;2023-08-31T08:17:56;7.68;;;6.50;;
18899;SDS011;9582;52.018;6.306;2023-08-31T08:20:23;10.38;;;6.85;;
18899;SDS011;9582;52.018;6.306;2023-08-31T08:22:49;9.40;;;8.30;;
18899;SDS011;9582;52.018;6.306;2023-08-31T08:25:17;9.65;;;7.13;;
18899;SDS011;9582;52.018;6.306;2023-08-31T08:27:45;8.88;;;5.53;;
18899;SDS011;9582;52.018;6.306;2023-08-31T08:30:12;7.53;;;5.80;;
18899;SDS011;9582;52.018;6.306;2023-08-31T08:32:38;9.68;;;5.88;;
18899;SDS011;9582;52.018;6.306;2023-08-31T08:35:07;7.60;;;5.60;;
18899;SDS011;9582;52.018;6.306;2023-08-31T08:37:34;6.75;;;5.45;;
18899;SDS011;9582;52.018;6.306;2023-08-31T08:40:01;6.43;;;5.10;;
18899;SDS011;9582;52.018;6.306;2023-08-31T08:42:29;7.32;;;4.60;;
18899;SDS011;9582;52.018;6.306;2023-08-31T08:44:56;7.07;;;4.65;;
18899;SDS011;9582;52.018;6.306;2023-08-31T08:47:23;6.85;;;4.57;;
18899;SDS011;9582;52.018;6.306;2023-08-31T08:49:51;7.47;;;4.97;;
18899;SDS011;9582;52.018;6.306;2023-08-31T08:52:21;5.53;;;4.65;;
18899;SDS011;9582;52.018;6.306;2023-08-31T08:54:48;6.53;;;3.97;;
18899;SDS011;9582;52.018;6.306;2023-08-31T08:57:15;6.88;;;4.55;;
18899;SDS011;9582;52.018;6.306;2023-08-31T08:59:42;6.95;;;3.55;;
18899;SDS011;9582;52.018;6.306;2023-08-31T09:02:09;5.93;;;3.53;;
18899;SDS011;9582;52.018;6.306;2023-08-31T09:04:36;5.90;;;4.13;;
18899;SDS011;9582;52.018;6.306;2023-08-31T09:07:03;3.85;;;3.40;;
18899;SDS011;9582;52.018;6.306;2023-08-31T09:09:30;6.72;;;4.38;;
18899;SDS011;9582;52.018;6.306;2023-08-31T09:12:05;5.82;;;3.97;;
18899;SDS011;9582;52.018;6.306;2023-08-31T09:14:32;6.22;;;4.47;;
18899;SDS011;9582;52.018;6.306;2023-08-31T09:16:59;5.05;;;4.00;;
18899;SDS011;9582;52.018;6.306;2023-08-31T09:19:25;9.07;;;4.95;;
18899;SDS011;9582;52.018;6.306;2023-08-31T09:21:55;6.10;;;4.97;;
18899;SDS011;9582;52.018;6.306;2023-08-31T09:24:23;6.80;;;5.45;;
18899;SDS011;9582;52.018;6.306;2023-08-31T09:26:52;7.63;;;6.05;;
18899;SDS011;9582;52.018;6.306;2023-08-31T09:29:19;10.95;;;7.10;;
18899;SDS011;9582;52.018;6.306;2023-08-31T09:31:46;9.20;;;7.38;;
18899;SDS011;9582;52.018;6.306;2023-08-31T09:34:12;10.57;;;6.97;;
18899;SDS011;9582;52.018;6.306;2023-08-31T09:36:40;7.32;;;6.10;;
18899;SDS011;9582;52.018;6.306;2023-08-31T09:39:07;8.77;;;7.78;;
18899;SDS011;9582;52.018;6.306;2023-08-31T09:41:34;7.13;;;6.40;;
18899;SDS011;9582;52.018;6.306;2023-08-31T09:44:15;8.60;;;6.45;;
18899;SDS011;9582;52.018;6.306;2023-08-31T09:46:43;7.30;;;6.53;;
18899;SDS011;9582;52.018;6.306;2023-08-31T09:49:10;9.18;;;7.03;;
18899;SDS011;9582;52.018;6.306;2023-08-31T09:51:41;8.38;;;6.80;;
18899;SDS011;9582;52.018;6.306;2023-08-31T09:54:11;10.80;;;6.88;;
18899;SDS011;9582;52.018;6.306;2023-08-31T09:56:41;8.60;;;7.47;;
18899;SDS011;9582;52.018;6.306;2023-08-31T09:59:08;8.93;;;6.68;;
18899;SDS011;9582;52.018;6.306;2023-08-31T10:01:36;7.70;;;6.60;;
18899;SDS011;9582;52.018;6.306;2023-08-31T10:04:03;10.27;;;7.68;;
18899;SDS011;9582;52.018;6.306;2023-08-31T10:06:33;9.13;;;7.38;;
18899;SDS011;9582;52.018;6.306;2023-08-31T10:09:01;9.30;;;7.43;;
18899;SDS011;9582;52.018;6.306;2023-08-31T10:11:28;10.55;;;7.50;;
18899;SDS011;9582;52.018;6.306;2023-08-31T10:13:56;8.43;;;6.97;;
18899;SDS011;9582;52.018;6.306;2023-08-31T10:16:24;9.07;;;6.15;;
18899;SDS011;9582;52.018;6.306;2023-08-31T10:18:53;9.63;;;6.10;;
18899;SDS011;9582;52.018;6.306;2023-08-31T10:21:21;7.20;;;4.50;;
18899;SDS011;9582;52.018;6.306;2023-08-31T10:23:48;4.65;;;3.70;;
18899;SDS011;9582;52.018;6.306;2023-08-31T10:26:22;5.75;;;3.33;;
18899;SDS011;9582;52.018;6.306;2023-08-31T10:28:49;4.32;;;3.13;;
18899;SDS011;9582;52.018;6.306;2023-08-31T10:31:16;4.30;;;2.60;;
18899;SDS011;9582;52.018;6.306;2023-08-31T10:33:44;5.85;;;2.55;;
18899;SDS011;9582;52.018;6.306;2023-08-31T10:36:13;4.40;;;2.83;;
18899;SDS011;9582;52.018;6.306;2023-08-31T10:38:41;3.88;;;2.95;;
18899;SDS011;9582;52.018;6.306;2023-08-31T10:41:20;6.43;;;3.80;;
18899;SDS011;9582;52.018;6.306;2023-08-31T10:43:48;5.47;;;3.22;;
18899;SDS011;9582;52.018;6.306;2023-08-31T10:46:24;5.75;;;4.18;;
18899;SDS011;9582;52.018;6.306;2023-08-31T10:48:52;4.65;;;3.80;;
18899;SDS011;9582;52.018;6.306;2023-08-31T10:51:28;5.85;;;3.88;;
18899;SDS011;9582;52.018;6.306;2023-08-31T10:54:06;5.22;;;3.90;;
18899;SDS011;9582;52.018;6.306;2023-08-31T10:56:38;3.60;;;3.30;;
18899;SDS011;9582;52.018;6.306;2023-08-31T10:59:18;3.63;;;3.15;;
18899;SDS011;9582;52.018;6.306;2023-08-31T11:01:52;4.03;;;2.72;;
18899;SDS011;9582;52.018;6.306;2023-08-31T11:04:19;4.90;;;2.97;;
18899;SDS011;9582;52.018;6.306;2023-08-31T11:06:47;5.32;;;3.40;;
18899;SDS011;9582;52.018;6.306;2023-08-31T11:09:18;5.38;;;3.90;;
18899;SDS011;9582;52.018;6.306;2023-08-31T11:11:46;5.45;;;3.75;;
18899;SDS011;9582;52.018;6.306;2023-08-31T11:14:13;6.90;;;4.00;;
18899;SDS011;9582;52.018;6.306;2023-08-31T11:16:39;5.40;;;3.90;;
18899;SDS011;9582;52.018;6.306;2023-08-31T11:19:06;6.15;;;4.03;;
18899;SDS011;9582;52.018;6.306;2023-08-31T11:21:33;6.72;;;4.32;;
18899;SDS011;9582;52.018;6.306;2023-08-31T11:24:03;5.18;;;4.07;;
18899;SDS011;9582;52.018;6.306;2023-08-31T11:26:31;6.82;;;4.75;;
18899;SDS011;9582;52.018;6.306;2023-08-31T11:28:58;5.30;;;4.80;;
18899;SDS011;9582;52.018;6.306;2023-08-31T11:31:24;5.00;;;4.15;;
18899;SDS011;9582;52.018;6.306;2023-08-31T11:33:51;7.00;;;4.32;;
18899;SDS011;9582;52.018;6.306;2023-08-31T11:36:20;6.05;;;4.65;;
18899;SDS011;9582;52.018;6.306;2023-08-31T11:38:47;7.70;;;4.00;;
18899;SDS011;9582;52.018;6.306;2023-08-31T11:41:15;5.93;;;3.97;;
18899;SDS011;9582;52.018;6.306;2023-08-31T11:43:42;6.28;;;4.03;;
18899;SDS011;9582;52.018;6.306;2023-08-31T11:46:10;8.50;;;4.32;;
18899;SDS011;9582;52.018;6.306;2023-08-31T11:48:37;4.50;;;3.92;;
18899;SDS011;9582;52.018;6.306;2023-08-31T11:51:04;4.95;;;3.65;;
18899;SDS011;9582;52.018;6.306;2023-08-31T11:53:30;4.55;;;3.45;;
18899;SDS011;9582;52.018;6.306;2023-08-31T11:55:57;3.80;;;2.50;;
18899;SDS011;9582;52.018;6.306;2023-08-31T11:58:25;4.75;;;2.85;;
18899;SDS011;9582;52.018;6.306;2023-08-31T12:00:56;3.10;;;1.98;;
18899;SDS011;9582;52.018;6.306;2023-08-31T12:03:23;2.65;;;2.03;;
18899;SDS011;9582;52.018;6.306;2023-08-31T12:05:51;5.03;;;2.42;;
18899;SDS011;9582;52.018;6.306;2023-08-31T12:08:23;3.55;;;2.45;;
18899;SDS011;9582;52.018;6.306;2023-08-31T12:10:50;3.42;;;2.10;;
18899;SDS011;9582;52.018;6.306;2023-08-31T12:13:17;2.35;;;2.15;;
18899;SDS011;9582;52.018;6.306;2023-08-31T12:15:44;4.28;;;2.20;;
18899;SDS011;9582;52.018;6.306;2023-08-31T12:18:11;6.53;;;2.88;;
18899;SDS011;9582;52.018;6.306;2023-08-31T12:20:42;3.13;;;2.78;;
18899;SDS011;9582;52.018;6.306;2023-08-31T12:23:10;5.30;;;2.92;;
18899;SDS011;9582;52.018;6.306;2023-08-31T12:25:36;4.57;;;2.47;;
18899;SDS011;9582;52.018;6.306;2023-08-31T12:28:03;5.90;;;2.67;;
18899;SDS011;9582;52.018;6.306;2023-08-31T12:30:30;2.50;;;2.22;;
18899;SDS011;9582;52.018;6.306;2023-08-31T12:32:57;4.63;;;2.40;;
18899;SDS011;9582;52.018;6.306;2023-08-31T12:35:24;3.83;;;2.88;;
18899;SDS011;9582;52.018;6.306;2023-08-31T12:37:50;5.85;;;3.15;;
18899;SDS011;9582;52.018;6.306;2023-08-31T12:40:17;3.95;;;2.88;;
18899;SDS011;9582;52.018;6.306;2023-08-31T12:42:45;4.88;;;3.03;;
18899;SDS011;9582;52.018;6.306;2023-08-31T12:45:11;5.15;;;3.15;;
18899;SDS011;9582;52.018;6.306;2023-08-31T12:47:38;3.10;;;2.58;;
18899;SDS011;9582;52.018;6.306;2023-08-31T12:50:06;9.20;;;3.20;;
18899;SDS011;9582;52.018;6.306;2023-08-31T12:52:33;3.83;;;2.40;;
18899;SDS011;9582;52.018;6.306;2023-08-31T12:54:59;3.13;;;2.40;;
18899;SDS011;9582;52.018;6.306;2023-08-31T12:57:25;3.30;;;2.65;;
18899;SDS011;9582;52.018;6.306;2023-08-31T12:59:52;3.60;;;2.85;;
18899;SDS011;9582;52.018;6.306;2023-08-31T13:02:18;3.72;;;2.42;;
18899;SDS011;9582;52.018;6.306;2023-08-31T13:04:45;4.95;;;2.50;;
18899;SDS011;9582;52.018;6.306;2023-08-31T13:07:13;4.70;;;2.47;;
18899;SDS011;9582;52.018;6.306;2023-08-31T13:09:39;4.05;;;1.67;;
18899;SDS011;9582;52.018;6.306;2023-08-31T13:12:06;2.05;;;0.93;;
18899;SDS011;9582;52.018;6.306;2023-08-31T13:14:33;1.35;;;0.73;;
18899;SDS011;9582;52.018;6.306;2023-08-31T13:16:59;2.70;;;1.02;;
18899;SDS011;9582;52.018;6.306;2023-08-31T13:19:26;1.95;;;0.80;;
18899;SDS011;9582;52.018;6.306;2023-08-31T13:21:52;1.70;;;0.85;;
18899;SDS011;9582;52.018;6.306;2023-08-31T13:24:20;2.05;;;1.13;;
18899;SDS011;9582;52.018;6.306;2023-08-31T13:26:47;3.22;;;1.35;;
18899;SDS011;9582;52.018;6.306;2023-08-31T13:29:13;1.90;;;1.20;;
18899;SDS011;9582;52.018;6.306;2023-08-31T13:31:40;1.55;;;1.02;;
18899;SDS011;9582;52.018;6.306;2023-08-31T13:34:07;2.45;;;0.95;;
18899;SDS011;9582;52.018;6.306;2023-08-31T13:36:33;1.45;;;0.80;;
18899;SDS011;9582;52.018;6.306;2023-08-31T13:39:00;1.00;;;0.80;;
18899;SDS011;9582;52.018;6.306;2023-08-31T13:41:29;1.75;;;1.00;;
18899;SDS011;9582;52.018;6.306;2023-08-31T13:43:55;1.98;;;1.02;;
18899;SDS011;9582;52.018;6.306;2023-08-31T13:46:22;1.55;;;1.00;;
18899;SDS011;9582;52.018;6.306;2023-08-31T13:48:48;1.73;;;0.98;;
18899;SDS011;9582;52.018;6.306;2023-08-31T13:51:15;2.95;;;0.95;;
18899;SDS011;9582;52.018;6.306;2023-08-31T13:53:41;2.15;;;0.90;;
18899;SDS011;9582;52.018;6.306;2023-08-31T13:56:08;1.65;;;0.90;;
18899;SDS011;9582;52.018;6.306;2023-08-31T13:58:35;2.10;;;0.90;;
18899;SDS011;9582;52.018;6.306;2023-08-31T14:01:02;2.65;;;0.90;;
18899;SDS011;9582;52.018;6.306;2023-08-31T14:03:28;3.15;;;1.00;;
18899;SDS011;9582;52.018;6.306;2023-08-31T14:05:55;1.75;;;0.90;;
18899;SDS011;9582;52.018;6.306;2023-08-31T14:08:21;2.15;;;0.85;;
18899;SDS011;9582;52.018;6.306;2023-08-31T14:10:48;1.13;;;1.00;;
18899;SDS011;9582;52.018;6.306;2023-08-31T14:13:14;1.90;;;1.10;;
18899;SDS011;9582;52.018;6.306;2023-08-31T14:15:45;1.10;;;0.85;;
18899;SDS011;9582;52.018;6.306;2023-08-31T14:18:12;3.60;;;1.10;;
18899;SDS011;9582;52.018;6.306;2023-08-31T14:20:39;1.83;;;1.08;;
18899;SDS011;9582;52.018;6.306;2023-08-31T14:23:05;2.40;;;1.00;;
18899;SDS011;9582;52.018;6.306;2023-08-31T14:25:33;2.35;;;1.10;;
18899;SDS011;9582;52.018;6.306;2023-08-31T14:28:01;3.15;;;1.00;;
18899;SDS011;9582;52.018;6.306;2023-08-31T14:30:28;2.55;;;0.90;;
18899;SDS011;9582;52.018;6.306;2023-08-31T14:32:56;4.20;;;1.00;;
18899;SDS011;9582;52.018;6.306;2023-08-31T14:35:22;2.72;;;0.98;;
18899;SDS011;9582;52.018;6.306;2023-08-31T14:37:49;2.08;;;1.10;;
18899;SDS011;9582;52.018;6.306;2023-08-31T14:40:15;2.38;;;0.95;;
18899;SDS011;9582;52.018;6.306;2023-08-31T14:42:42;1.90;;;1.05;;
18899;SDS011;9582;52.018;6.306;2023-08-31T14:45:08;1.77;;;1.05;;
18899;SDS011;9582;52.018;6.306;2023-08-31T14:47:35;2.20;;;0.95;;
18899;SDS011;9582;52.018;6.306;2023-08-31T14:50:03;1.63;;;1.08;;
18899;SDS011;9582;52.018;6.306;2023-08-31T14:52:30;1.95;;;1.10;;